Time;durP1;ratioP1;P1;durP2;ratioP2;P2;SDS_P1;SDS_P2;PMS_P1;PMS_P2;Temp;Humidity;BMP_temperature;BMP_pressure;BME280_temperature;BME280_humidity;BME280_pressure;Samples;Min_cycle;Max_cycle;Signal;HPM_P1;HPM_P2
2021/09/03 00:00:52;;;;;;;3.28;2.72;;;25.40;50.20;;;;;;5015738;28;20029;-60
2021/09/03 00:03:18;;;;;;;3.47;2.53;;;25.40;50.70;;;;;;5021694;28;20064;-60
2021/09/03 00:05:44;;;;;;;4.20;3.10;;;25.40;50.20;;;;;;5024277;28;20050;-58
2021/09/03 00:08:09;;;;;;;3.60;2.70;;;25.40;50.30;;;;;;5019578;28;20124;-50
2021/09/03 00:10:35;;;;;;;3.67;2.70;;;25.30;50.20;;;;;;5017731;28;20034;-56
2021/09/03 00:13:01;;;;;;;3.80;2.90;;;25.30;50.80;;;;;;5017759;28;20076;-53
2021/09/03 00:15:26;;;;;;;4.00;2.90;;;25.30;50.30;;;;;;5019765;28;20433;-52
2021/09/03 00:17:52;;;;;;;3.67;2.75;;;25.30;50.30;;;;;;5017758;28;20125;-59
2021/09/03 00:20:18;;;;;;;3.65;2.78;;;25.20;50.30;;;;;;5016078;28;20021;-53
2021/09/03 00:22:44;;;;;;;3.55;2.80;;;25.20;50.40;;;;;;5020535;28;20037;-58
2021/09/03 00:25:11;;;;;;;3.47;2.45;;;25.20;50.40;;;;;;5016668;28;20386;-52
2021/09/03 00:27:37;;;;;;;3.53;2.65;;;25.20;50.40;;;;;;5019805;28;20312;-47
2021/09/03 00:30:05;;;;;;;3.70;2.55;;;25.10;50.40;;;;;;5019538;28;20026;-51
2021/09/03 00:32:31;;;;;;;3.42;2.63;;;25.10;50.40;;;;;;5022868;28;20084;-53
2021/09/03 00:34:56;;;;;;;3.20;2.47;;;25.10;50.40;;;;;;5024971;28;20025;-52
2021/09/03 00:37:22;;;;;;;3.20;2.60;;;25.10;50.40;;;;;;5023542;28;20033;-51
2021/09/03 00:39:48;;;;;;;3.15;2.40;;;25.10;50.50;;;;;;5025906;28;20057;-58
2021/09/03 00:42:15;;;;;;;3.53;2.80;;;25.10;50.50;;;;;;5016969;28;20053;-50
2021/09/03 00:44:41;;;;;;;3.97;3.13;;;25.10;50.60;;;;;;5018904;28;20563;-50
2021/09/03 00:47:07;;;;;;;3.25;2.50;;;25.10;50.60;;;;;;5018866;28;20045;-57
2021/09/03 00:49:33;;;;;;;2.80;2.40;;;25.00;50.50;;;;;;5021379;28;20041;-59
2021/09/03 00:52:01;;;;;;;3.35;2.30;;;25.00;50.60;;;;;;5026285;28;20033;-57
2021/09/03 00:54:27;;;;;;;3.42;2.40;;;25.00;50.60;;;;;;5013252;28;20030;-54
2021/09/03 00:56:52;;;;;;;3.38;2.50;;;25.00;50.60;;;;;;5024911;28;20052;-51
2021/09/03 00:59:18;;;;;;;3.40;2.50;;;25.00;50.60;;;;;;5021947;28;20026;-59
2021/09/03 01:01:44;;;;;;;3.45;2.60;;;24.90;50.60;;;;;;5026944;28;20033;-53
2021/09/03 01:04:09;;;;;;;3.42;2.50;;;24.90;50.60;;;;;;5016831;28;20045;-53
2021/09/03 01:06:35;;;;;;;3.47;2.40;;;24.90;50.70;;;;;;5025543;28;20030;-55
2021/09/03 01:09:01;;;;;;;3.50;2.58;;;24.90;50.70;;;;;;5009589;28;20323;-58
2021/09/03 01:11:27;;;;;;;3.75;2.53;;;24.90;50.70;;;;;;5014363;28;20025;-58
2021/09/03 01:13:52;;;;;;;3.42;2.40;;;24.90;50.70;;;;;;5022209;28;20132;-60
2021/09/03 01:16:18;;;;;;;3.30;2.40;;;24.90;50.80;;;;;;5020952;28;20024;-51
2021/09/03 01:18:43;;;;;;;3.60;2.42;;;24.90;50.80;;;;;;5022071;28;20025;-56
2021/09/03 01:21:09;;;;;;;3.15;2.40;;;24.80;50.70;;;;;;5025195;28;20033;-49
2021/09/03 01:23:35;;;;;;;3.30;2.50;;;24.80;50.70;;;;;;5025939;28;20037;-57
2021/09/03 01:26:03;;;;;;;3.63;2.30;;;24.80;50.70;;;;;;5017560;28;20041;-55
2021/09/03 01:28:29;;;;;;;3.20;2.50;;;24.80;50.80;;;;;;5025276;28;20041;-58
2021/09/03 01:30:55;;;;;;;3.15;2.40;;;24.80;50.80;;;;;;5013760;28;20390;-60
2021/09/03 01:33:20;;;;;;;2.78;2.10;;;24.80;50.80;;;;;;5023218;28;20377;-59
2021/09/03 01:35:46;;;;;;;3.15;2.25;;;24.80;50.90;;;;;;5012158;28;20057;-59
2021/09/03 01:38:12;;;;;;;3.47;2.63;;;24.80;50.90;;;;;;5017727;28;20040;-55
2021/09/03 01:40:37;;;;;;;3.67;2.55;;;24.80;50.90;;;;;;5026105;28;20041;-59
2021/09/03 01:43:03;;;;;;;3.40;2.30;;;24.70;50.90;;;;;;5023632;28;20063;-53
2021/09/03 01:45:29;;;;;;;3.58;2.45;;;24.70;50.90;;;;;;5025748;28;20055;-58
2021/09/03 01:47:55;;;;;;;3.20;2.40;;;24.70;50.90;;;;;;5025863;28;20462;-57
2021/09/03 01:50:20;;;;;;;3.25;2.38;;;24.70;50.90;;;;;;5022320;28;20111;-53
2021/09/03 01:52:46;;;;;;;2.90;2.17;;;24.70;50.90;;;;;;5027106;28;20043;-60
2021/09/03 01:55:11;;;;;;;3.75;2.60;;;24.70;51.00;;;;;;5018025;28;20061;-58
2021/09/03 01:57:37;;;;;;;3.28;2.33;;;24.70;51.00;;;;;;5021709;28;20125;-60
2021/09/03 02:00:04;;;;;;;3.25;2.42;;;24.70;51.00;;;;;;5019465;28;20143;-58
2021/09/03 02:02:30;;;;;;;3.55;2.65;;;24.60;50.90;;;;;;5025726;28;20429;-54
2021/09/03 02:04:56;;;;;;;3.08;2.30;;;24.60;50.90;;;;;;5025420;28;20068;-58
2021/09/03 02:07:21;;;;;;;3.10;2.40;;;24.60;51.00;;;;;;5023772;28;20478;-53
2021/09/03 02:09:47;;;;;;;3.55;2.60;;;24.60;50.90;;;;;;5018154;28;20421;-58
2021/09/03 02:12:13;;;;;;;3.42;2.40;;;24.60;51.00;;;;;;5018767;28;20052;-54
2021/09/03 02:14:42;;;;;;;3.10;2.40;;;24.60;51.00;;;;;;5026914;28;20033;-52
2021/09/03 02:17:08;;;;;;;3.47;2.40;;;24.60;51.00;;;;;;5013922;28;20048;-52
2021/09/03 02:19:34;;;;;;;3.58;2.35;;;24.60;51.00;;;;;;5017013;28;20033;-53
2021/09/03 02:22:00;;;;;;;3.45;2.42;;;24.60;51.00;;;;;;5022032;28;20428;-59
2021/09/03 02:24:26;;;;;;;2.53;2.00;;;24.60;51.00;;;;;;5015821;28;20041;-60
2021/09/03 02:26:51;;;;;;;2.80;2.13;;;24.50;51.00;;;;;;5017097;28;20136;-48
2021/09/03 02:29:17;;;;;;;2.67;2.13;;;24.60;51.10;;;;;;5019229;28;20022;-59
2021/09/03 02:31:42;;;;;;;2.97;2.15;;;24.50;51.00;;;;;;5017381;28;20021;-56
2021/09/03 02:34:08;;;;;;;3.28;2.50;;;24.50;51.00;;;;;;5021159;28;20029;-56
2021/09/03 02:36:34;;;;;;;3.60;2.42;;;24.50;51.10;;;;;;5024842;28;20029;-54
2021/09/03 02:39:00;;;;;;;3.00;2.20;;;24.50;51.10;;;;;;5026803;28;20053;-59
2021/09/03 02:41:25;;;;;;;2.92;2.17;;;24.50;51.10;;;;;;5022035;28;20426;-54
2021/09/03 02:43:51;;;;;;;2.95;2.10;;;24.50;51.10;;;;;;5027869;28;20037;-48
2021/09/03 02:46:16;;;;;;;3.00;2.13;;;24.50;51.10;;;;;;5029684;28;20075;-58
2021/09/03 02:48:42;;;;;;;3.10;2.35;;;24.50;51.10;;;;;;5018559;28;20501;-58
2021/09/03 02:51:08;;;;;;;3.00;2.38;;;24.40;51.10;;;;;;5021081;28;20120;-58
2021/09/03 02:53:33;;;;;;;3.00;2.28;;;24.40;51.10;;;;;;5022544;28;20025;-58
2021/09/03 02:55:59;;;;;;;3.42;2.38;;;24.40;51.10;;;;;;5012809;28;20034;-58
2021/09/03 02:58:25;;;;;;;3.03;2.20;;;24.40;51.10;;;;;;5020739;28;20048;-54
2021/09/03 03:00:50;;;;;;;3.00;2.38;;;24.40;51.20;;;;;;5027349;28;20485;-59
2021/09/03 03:03:16;;;;;;;2.80;2.17;;;24.40;51.20;;;;;;5022309;28;20112;-54
2021/09/03 03:05:42;;;;;;;2.78;2.15;;;24.40;51.20;;;;;;5029588;28;20041;-57
2021/09/03 03:08:07;;;;;;;3.00;2.40;;;24.40;51.20;;;;;;5027204;28;20108;-51
2021/09/03 03:10:33;;;;;;;3.03;2.20;;;24.40;51.20;;;;;;5019191;28;20114;-52
2021/09/03 03:12:59;;;;;;;2.88;2.25;;;24.30;51.10;;;;;;5026193;28;20367;-58
2021/09/03 03:15:25;;;;;;;2.72;2.10;;;24.30;51.20;;;;;;5027138;28;20545;-58
2021/09/03 03:17:51;;;;;;;3.05;2.40;;;24.30;51.70;;;;;;5027176;28;20100;-52
2021/09/03 03:20:18;;;;;;;3.00;2.20;;;24.30;51.20;;;;;;5020375;28;20022;-55
2021/09/03 03:22:45;;;;;;;2.83;2.25;;;24.30;51.20;;;;;;5022866;28;20033;-55
2021/09/03 03:25:11;;;;;;;2.60;2.00;;;24.30;51.20;;;;;;5022633;28;20548;-59
2021/09/03 03:27:36;;;;;;;3.10;2.10;;;24.30;51.20;;;;;;5019882;28;20029;-59
2021/09/03 03:30:03;;;;;;;3.20;2.30;;;24.30;51.20;;;;;;5024445;28;20029;-53
2021/09/03 03:32:28;;;;;;;3.25;2.20;;;24.30;51.20;;;;;;5020161;28;20037;-58
2021/09/03 03:34:54;;;;;;;3.25;2.40;;;24.30;51.20;;;;;;5017823;28;20038;-53
2021/09/03 03:37:20;;;;;;;2.83;2.10;;;24.30;51.20;;;;;;5015152;28;20030;-53
2021/09/03 03:39:45;;;;;;;3.22;2.33;;;24.30;51.30;;;;;;5013150;28;20117;-50
2021/09/03 03:42:11;;;;;;;2.90;2.20;;;24.30;51.30;;;;;;5022184;28;20033;-58
2021/09/03 03:44:36;;;;;;;2.90;2.30;;;24.30;51.30;;;;;;5028633;28;20025;-59
2021/09/03 03:47:02;;;;;;;3.20;2.13;;;24.20;51.20;;;;;;5028258;28;20033;-58
2021/09/03 03:49:28;;;;;;;2.50;2.00;;;24.20;51.30;;;;;;5024886;28;20053;-58
2021/09/03 03:51:54;;;;;;;3.00;2.10;;;24.20;51.30;;;;;;5018407;28;20034;-59
2021/09/03 03:54:19;;;;;;;3.00;2.35;;;24.20;51.30;;;;;;5022615;28;20063;-49
2021/09/03 03:56:45;;;;;;;3.08;2.10;;;24.20;51.30;;;;;;5018546;28;20030;-58
2021/09/03 03:59:10;;;;;;;3.28;2.17;;;24.20;51.30;;;;;;5020829;28;20106;-57
2021/09/03 04:01:36;;;;;;;3.03;2.30;;;24.10;51.30;;;;;;5025653;28;20037;-50
2021/09/03 04:04:02;;;;;;;2.97;2.13;;;24.20;51.40;;;;;;5020083;28;20137;-58
2021/09/03 04:06:27;;;;;;;3.15;2.13;;;24.10;51.30;;;;;;5023899;28;20160;-59
2021/09/03 04:08:53;;;;;;;2.70;2.10;;;24.20;51.40;;;;;;5026698;28;20068;-50
2021/09/03 04:11:19;;;;;;;2.40;1.90;;;24.10;51.30;;;;;;5016119;28;20120;-57
2021/09/03 04:13:44;;;;;;;2.75;2.08;;;24.10;51.30;;;;;;5025725;28;20041;-53
2021/09/03 04:16:10;;;;;;;2.50;1.95;;;24.10;51.40;;;;;;5013853;28;20785;-59
2021/09/03 04:18:38;;;;;;;2.40;1.80;;;24.10;51.40;;;;;;5028979;28;20386;-58
2021/09/03 04:21:05;;;;;;;2.90;2.20;;;24.10;51.40;;;;;;5018575;28;20042;-53
2021/09/03 04:23:31;;;;;;;2.70;1.95;;;24.10;51.40;;;;;;5023639;28;20064;-57
2021/09/03 04:25:57;;;;;;;2.90;2.00;;;24.10;51.40;;;;;;5022554;28;20366;-56
2021/09/03 04:28:23;;;;;;;2.90;2.08;;;24.10;51.40;;;;;;5027082;28;20026;-58
2021/09/03 04:30:48;;;;;;;3.20;2.17;;;24.10;51.40;;;;;;5022179;28;20030;-56
2021/09/03 04:33:15;;;;;;;2.55;1.88;;;24.10;51.40;;;;;;5012336;28;20451;-53
2021/09/03 04:35:40;;;;;;;3.35;2.20;;;24.00;51.40;;;;;;5020728;28;20030;-57
2021/09/03 04:38:06;;;;;;;2.72;2.10;;;24.10;51.50;;;;;;5019587;28;20032;-56
2021/09/03 04:40:32;;;;;;;2.80;2.10;;;24.10;51.40;;;;;;5026909;28;20022;-58
2021/09/03 04:42:57;;;;;;;2.92;2.00;;;24.00;51.40;;;;;;5021396;28;20054;-57
2021/09/03 04:45:23;;;;;;;2.92;2.15;;;24.00;51.50;;;;;;5025284;28;20026;-51
2021/09/03 04:47:50;;;;;;;2.85;2.17;;;24.00;51.50;;;;;;5027880;28;20033;-53
2021/09/03 04:50:16;;;;;;;2.97;2.13;;;24.00;51.50;;;;;;5014144;28;20036;-58
2021/09/03 04:52:43;;;;;;;3.00;1.98;;;24.00;51.50;;;;;;5022451;28;20045;-59
2021/09/03 04:55:09;;;;;;;3.00;2.20;;;24.00;51.50;;;;;;5012254;28;20040;-52
2021/09/03 04:57:39;;;;;;;3.00;2.10;;;24.00;51.50;;;;;;5022689;28;20022;-55
2021/09/03 05:00:06;;;;;;;2.80;1.83;;;24.00;51.50;;;;;;5018814;28;20021;-59
2021/09/03 05:02:32;;;;;;;2.60;2.00;;;24.00;51.60;;;;;;5025277;28;20075;-57
2021/09/03 05:04:57;;;;;;;2.60;1.90;;;24.00;51.50;;;;;;5027795;28;20029;-57
2021/09/03 05:07:23;;;;;;;2.97;2.30;;;23.90;51.50;;;;;;5018910;28;20037;-53
2021/09/03 05:09:48;;;;;;;2.63;2.05;;;23.90;51.50;;;;;;5012397;28;20106;-50
2021/09/03 05:12:14;;;;;;;2.95;2.20;;;23.90;51.50;;;;;;5015724;28;20128;-59
2021/09/03 05:14:40;;;;;;;2.33;1.80;;;23.90;52.10;;;;;;5014732;28;20489;-52
2021/09/03 05:17:06;;;;;;;2.78;1.92;;;23.90;51.50;;;;;;5021050;28;20047;-59
2021/09/03 05:19:31;;;;;;;2.92;1.90;;;23.90;51.50;;;;;;5018392;28;20037;-50
2021/09/03 05:21:57;;;;;;;2.58;1.90;;;23.90;51.60;;;;;;5015917;28;20092;-49
2021/09/03 05:24:23;;;;;;;2.88;2.00;;;23.90;51.50;;;;;;5012088;28;20101;-59
2021/09/03 05:26:48;;;;;;;2.80;1.90;;;23.90;51.60;;;;;;5008268;28;20033;-53
2021/09/03 05:29:14;;;;;;;2.65;1.90;;;23.90;51.60;;;;;;5018353;28;20041;-48
2021/09/03 05:31:39;;;;;;;2.42;1.80;;;23.90;51.60;;;;;;5017704;28;20457;-58
2021/09/03 05:34:05;;;;;;;2.83;2.00;;;23.90;51.60;;;;;;5020322;28;20128;-59
2021/09/03 05:36:31;;;;;;;2.72;1.98;;;23.90;51.60;;;;;;5023502;28;20366;-57
2021/09/03 05:38:56;;;;;;;2.40;1.80;;;23.90;51.60;;;;;;5022930;28;20075;-58
2021/09/03 05:41:22;;;;;;;2.45;1.85;;;23.90;51.60;;;;;;5017856;28;20875;-53
2021/09/03 05:43:48;;;;;;;2.55;1.80;;;23.80;51.60;;;;;;5026744;28;20045;-55
2021/09/03 05:46:13;;;;;;;2.75;2.05;;;23.80;51.60;;;;;;5021992;28;20033;-58
2021/09/03 05:48:39;;;;;;;2.47;1.80;;;23.80;51.60;;;;;;5020660;28;20036;-55
2021/09/03 05:51:04;;;;;;;2.45;1.83;;;23.80;51.60;;;;;;5024451;28;20017;-58
2021/09/03 05:53:30;;;;;;;2.50;2.00;;;23.80;51.60;;;;;;5015081;28;20512;-58
2021/09/03 05:55:56;;;;;;;2.53;1.77;;;23.80;51.60;;;;;;5017161;28;20041;-52
2021/09/03 05:58:21;;;;;;;2.72;1.83;;;23.80;51.60;;;;;;5015507;28;20194;-58
2021/09/03 06:00:47;;;;;;;3.72;1.90;;;23.80;51.60;;;;;;5009077;28;20030;-58
2021/09/03 06:03:12;;;;;;;2.45;1.70;;;23.80;51.70;;;;;;5019241;28;20029;-58
2021/09/03 06:05:38;;;;;;;2.80;2.00;;;23.80;51.70;;;;;;5022601;28;20030;-51
2021/09/03 06:08:04;;;;;;;2.90;1.85;;;23.90;51.70;;;;;;5009850;28;20038;-58
2021/09/03 06:10:30;;;;;;;2.95;2.13;;;23.90;51.70;;;;;;5014304;28;20482;-51
2021/09/03 06:12:55;;;;;;;2.70;2.08;;;23.90;51.60;;;;;;5015716;28;20041;-53
2021/09/03 06:15:21;;;;;;;2.60;1.95;;;23.90;51.70;;;;;;5011436;28;20481;-58
2021/09/03 06:17:47;;;;;;;2.63;2.10;;;23.90;51.60;;;;;;5022106;28;20030;-55
2021/09/03 06:20:13;;;;;;;2.40;1.80;;;23.90;51.50;;;;;;5017694;28;20097;-59
2021/09/03 06:22:39;;;;;;;2.67;1.92;;;24.00;51.50;;;;;;5033790;28;20041;-58
2021/09/03 06:25:05;;;;;;;2.67;1.80;;;24.00;51.50;;;;;;5017071;28;20706;-58
2021/09/03 06:27:31;;;;;;;2.42;1.90;;;24.00;51.50;;;;;;5026930;28;20084;-59
2021/09/03 06:29:57;;;;;;;2.60;2.00;;;24.00;51.60;;;;;;5019196;28;20029;-58
2021/09/03 06:32:25;;;;;;;2.30;1.60;;;24.00;51.50;;;;;;5021492;28;20057;-55
2021/09/03 06:34:56;;;;;;;3.15;2.10;;;24.10;51.70;;;;;;5031729;28;20397;-58
2021/09/03 06:37:24;;;;;;;2.70;2.00;;;24.10;51.50;;;;;;5034677;28;20075;-59
2021/09/03 06:39:50;;;;;;;3.00;2.10;;;24.10;51.40;;;;;;5031216;28;20477;-49
2021/09/03 06:42:16;;;;;;;2.58;1.92;;;24.10;51.30;;;;;;5023958;28;20034;-58
2021/09/03 06:44:42;;;;;;;2.90;2.00;;;24.20;51.30;;;;;;5015825;28;20168;-57
2021/09/03 06:47:08;;;;;;;2.90;2.10;;;24.20;51.20;;;;;;5028452;28;20484;-53
2021/09/03 06:49:34;;;;;;;2.55;2.10;;;24.30;51.20;;;;;;5020907;28;20018;-55
2021/09/03 06:52:01;;;;;;;2.63;2.05;;;24.30;51.20;;;;;;5037373;28;20033;-52
2021/09/03 06:54:27;;;;;;;3.70;2.30;;;24.30;51.10;;;;;;5029264;28;20036;-52
2021/09/03 06:56:53;;;;;;;2.63;2.05;;;24.30;51.10;;;;;;5024903;28;20434;-56
2021/09/03 06:59:18;;;;;;;3.00;2.30;;;24.30;51.00;;;;;;5015264;28;20033;-56
2021/09/03 07:01:44;;;;;;;2.80;1.95;;;24.40;51.00;;;;;;5025719;28;20061;-55
2021/09/03 07:04:10;;;;;;;2.67;2.10;;;24.30;50.90;;;;;;5026563;28;20032;-55
2021/09/03 07:06:35;;;;;;;2.78;2.00;;;24.40;51.00;;;;;;5036975;28;20056;-59
2021/09/03 07:09:04;;;;;;;2.67;2.00;;;24.40;51.00;;;;;;5030099;28;20202;-57
2021/09/03 07:11:31;;;;;;;3.15;2.10;;;24.40;50.90;;;;;;5032851;28;20040;-58
2021/09/03 07:13:56;;;;;;;3.20;2.15;;;24.40;50.90;;;;;;5026186;28;20065;-55
2021/09/03 07:16:22;;;;;;;3.10;2.22;;;24.50;50.80;;;;;;5030948;28;20076;-49
2021/09/03 07:18:47;;;;;;;2.70;2.10;;;24.40;50.80;;;;;;5025189;28;20096;-55
2021/09/03 07:21:13;;;;;;;2.70;2.10;;;24.50;50.80;;;;;;5032735;28;20030;-60
2021/09/03 07:23:39;;;;;;;2.90;2.13;;;24.50;50.70;;;;;;5015564;28;20080;-59
2021/09/03 07:26:04;;;;;;;2.95;2.08;;;24.50;50.70;;;;;;5024063;28;20025;-53
2021/09/03 07:28:30;;;;;;;2.88;2.00;;;24.60;50.70;;;;;;5015132;28;20048;-58
2021/09/03 07:30:56;;;;;;;2.47;2.00;;;24.60;50.70;;;;;;5027218;28;20076;-55
2021/09/03 07:33:21;;;;;;;2.75;1.92;;;24.50;50.60;;;;;;5030474;28;20442;-59
2021/09/03 07:35:47;;;;;;;2.42;1.92;;;24.60;50.60;;;;;;5013901;28;20014;-52
2021/09/03 07:38:13;;;;;;;2.70;2.10;;;24.60;50.60;;;;;;5032549;28;20037;-56
2021/09/03 07:40:39;;;;;;;2.90;2.30;;;24.60;50.60;;;;;;5038668;28;20044;-52
2021/09/03 07:43:08;;;;;;;3.13;1.90;;;24.60;50.50;;;;;;5013548;28;20038;-58
2021/09/03 07:45:36;;;;;;;2.40;1.85;;;24.60;50.60;;;;;;5017538;28;22103;-58
2021/09/03 07:48:02;;;;;;;2.60;1.90;;;24.60;50.70;;;;;;5030624;28;20441;-57
2021/09/03 07:50:28;;;;;;;2.67;2.08;;;24.60;50.60;;;;;;5024726;28;20093;-52
2021/09/03 07:52:54;;;;;;;2.63;1.92;;;24.60;50.60;;;;;;5026875;28;20026;-60
2021/09/03 07:55:20;;;;;;;2.97;2.20;;;24.70;50.60;;;;;;5025904;28;20503;-60
2021/09/03 07:57:45;;;;;;;2.72;1.92;;;24.70;50.50;;;;;;5032350;28;20057;-56
2021/09/03 08:00:11;;;;;;;2.72;2.00;;;24.70;50.50;;;;;;5029135;28;20022;-59
2021/09/03 08:02:37;;;;;;;3.05;1.90;;;24.70;50.50;;;;;;5023029;28;20681;-50
2021/09/03 08:05:04;;;;;;;2.45;1.92;;;24.70;50.40;;;;;;5021520;28;20030;-55
2021/09/03 08:07:31;;;;;;;2.33;1.80;;;24.70;50.40;;;;;;5012698;28;20125;-59
2021/09/03 08:09:57;;;;;;;2.85;1.90;;;24.80;50.40;;;;;;5027263;28;20044;-55
2021/09/03 08:12:23;;;;;;;2.50;2.05;;;24.80;50.40;;;;;;5026540;28;20041;-51
2021/09/03 08:14:48;;;;;;;3.20;2.50;;;24.80;50.30;;;;;;5023359;28;20025;-55
2021/09/03 08:17:14;;;;;;;2.50;1.98;;;24.80;50.30;;;;;;5026011;28;20029;-53
2021/09/03 08:19:39;;;;;;;2.70;2.08;;;24.80;50.20;;;;;;5021982;28;20034;-52
2021/09/03 08:22:05;;;;;;;2.53;1.90;;;24.80;50.20;;;;;;5023858;28;20373;-51
2021/09/03 08:24:31;;;;;;;2.63;1.77;;;24.80;50.30;;;;;;5017355;28;20058;-56
2021/09/03 08:26:57;;;;;;;2.22;1.77;;;24.90;50.30;;;;;;5019926;28;20077;-53
2021/09/03 08:29:22;;;;;;;2.95;2.10;;;24.90;50.30;;;;;;5009250;28;20026;-57
2021/09/03 08:31:48;;;;;;;2.97;2.10;;;24.90;50.20;;;;;;5014317;28;20037;-53
2021/09/03 08:34:14;;;;;;;2.60;1.90;;;24.90;50.20;;;;;;5017919;28;20112;-50
2021/09/03 08:36:40;;;;;;;2.72;2.03;;;24.90;50.20;;;;;;5015103;28;20096;-52
2021/09/03 08:39:06;;;;;;;4.28;2.17;;;24.90;50.20;;;;;;5015249;28;20460;-59
2021/09/03 08:41:31;;;;;;;3.15;2.40;;;25.00;50.20;;;;;;5016340;28;20026;-50
2021/09/03 08:43:59;;;;;;;2.72;1.92;;;25.00;50.10;;;;;;5016702;28;20080;-53
2021/09/03 08:46:26;;;;;;;2.70;2.13;;;25.00;50.10;;;;;;5013494;28;20034;-58
2021/09/03 08:48:53;;;;;;;2.80;2.00;;;25.00;50.10;;;;;;5028560;28;20030;-53
2021/09/03 08:51:19;;;;;;;3.25;2.10;;;25.00;50.10;;;;;;5021675;28;20037;-48
2021/09/03 08:53:45;;;;;;;2.58;1.80;;;25.00;50.00;;;;;;5014521;28;20026;-60
2021/09/03 08:56:13;;;;;;;2.80;1.88;;;25.00;50.00;;;;;;5012575;28;20084;-52
2021/09/03 08:58:39;;;;;;;2.50;1.90;;;25.00;50.00;;;;;;5040488;28;20083;-55
2021/09/03 09:01:09;;;;;;;2.60;1.90;;;25.00;50.00;;;;;;5017483;28;20032;-54
2021/09/03 09:03:39;;;;;;;2.47;2.03;;;25.10;50.10;;;;;;5018453;28;20052;-58
2021/09/03 09:06:05;;;;;;;2.63;1.90;;;25.10;50.00;;;;;;5015937;28;20108;-59
2021/09/03 09:08:33;;;;;;;2.50;1.90;;;25.10;50.00;;;;;;5020566;28;20591;-60
2021/09/03 09:11:00;;;;;;;3.15;2.28;;;25.10;50.00;;;;;;5018871;28;20472;-58
2021/09/03 09:13:28;;;;;;;2.60;1.85;;;25.10;50.00;;;;;;5030861;28;20401;-60
2021/09/03 09:16:01;;;;;;;2.60;2.00;;;25.10;50.00;;;;;;5030925;28;20032;-58
2021/09/03 09:18:45;;;;;;;2.55;1.88;;;25.10;49.90;;;;;;5014259;28;20522;-59
2021/09/03 09:21:17;;;;;;;2.83;2.03;;;25.10;49.90;;;;;;5014388;28;20034;-59
2021/09/03 09:23:48;;;;;;;2.55;1.80;;;25.10;50.00;;;;;;5018838;28;20034;-58
2021/09/03 09:26:16;;;;;;;2.47;1.92;;;25.10;50.00;;;;;;5017442;28;20037;-46
2021/09/03 09:28:43;;;;;;;2.50;2.00;;;25.10;49.90;;;;;;5015971;28;20042;-54
2021/09/03 09:31:09;;;;;;;2.65;1.85;;;25.10;49.90;;;;;;5012726;28;20061;-56
2021/09/03 09:33:35;;;;;;;2.45;1.90;;;25.10;49.90;;;;;;5010906;28;20109;-57
2021/09/03 09:36:03;;;;;;;2.80;1.85;;;25.20;49.90;;;;;;5010601;28;20034;-59
2021/09/03 09:38:34;;;;;;;2.63;1.98;;;25.20;49.90;;;;;;5011260;28;20036;-56
2021/09/03 09:41:08;;;;;;;2.90;2.10;;;25.20;49.90;;;;;;5012544;28;20026;-59
2021/09/03 09:43:38;;;;;;;2.55;1.90;;;25.20;49.90;;;;;;5013158;28;20050;-57
2021/09/03 09:46:24;;;;;;;2.58;1.80;;;25.20;49.90;;;;;;5011069;28;20022;-60
2021/09/03 09:48:50;;;;;;;2.60;2.00;;;25.20;49.90;;;;;;5008682;28;20809;-60
2021/09/03 09:51:23;;;;;;;2.80;2.03;;;25.20;49.90;;;;;;5010793;28;20040;-59
2021/09/03 09:54:01;;;;;;;2.72;2.00;;;25.20;49.80;;;;;;5018022;28;20034;-50
2021/09/03 09:56:28;;;;;;;3.28;2.25;;;25.20;49.80;;;;;;5015037;28;20418;-60
2021/09/03 09:58:56;;;;;;;2.40;1.80;;;25.30;49.90;;;;;;5014612;28;20021;-60
2021/09/03 10:01:23;;;;;;;2.80;1.90;;;25.30;49.90;;;;;;5024750;28;20025;-58
2021/09/03 10:03:50;;;;;;;2.47;1.80;;;25.30;49.80;;;;;;5026651;28;20083;-57
2021/09/03 10:06:17;;;;;;;2.15;1.63;;;25.30;49.80;;;;;;5021202;28;20026;-58
2021/09/03 10:08:45;;;;;;;2.40;1.80;;;25.30;49.80;;;;;;5024947;28;20061;-57
2021/09/03 10:11:15;;;;;;;3.08;1.92;;;25.30;49.80;;;;;;5015866;28;20034;-60
2021/09/03 10:13:41;;;;;;;2.20;1.75;;;25.30;49.80;;;;;;5018087;28;20029;-58
2021/09/03 10:16:07;;;;;;;2.72;2.00;;;25.30;49.80;;;;;;5021075;28;20033;-58
2021/09/03 10:18:33;;;;;;;3.83;2.10;;;25.40;49.80;;;;;;5019735;28;20109;-59
2021/09/03 10:21:03;;;;;;;2.75;2.10;;;25.40;49.80;;;;;;5013218;28;20037;-52
2021/09/03 10:23:48;;;;;;;2.47;1.80;;;25.40;49.80;;;;;;5021391;28;20083;-55
2021/09/03 10:26:16;;;;;;;2.42;1.85;;;25.40;49.90;;;;;;5022109;28;20541;-52
2021/09/03 10:28:42;;;;;;;2.38;1.80;;;25.40;49.80;;;;;;5017708;28;20141;-59
2021/09/03 10:31:08;;;;;;;2.40;1.95;;;25.40;49.80;;;;;;5026439;28;20063;-50
2021/09/03 10:33:38;;;;;;;2.67;1.90;;;25.40;49.80;;;;;;5015411;28;20116;-54
2021/09/03 10:36:04;;;;;;;2.55;1.90;;;25.40;49.80;;;;;;5014552;28;20022;-58
2021/09/03 10:38:34;;;;;;;2.22;1.73;;;25.40;49.80;;;;;;5020746;28;20025;-60
2021/09/03 10:41:02;;;;;;;3.28;2.13;;;25.40;49.90;;;;;;5024211;28;20555;-53
2021/09/03 10:43:45;;;;;;;2.23;1.80;;;25.40;49.90;;;;;;5019723;28;20095;-54
2021/09/03 10:46:14;;;;;;;2.38;1.90;;;25.40;49.80;;;;;;5012414;28;20033;-57
2021/09/03 10:48:47;;;;;;;2.70;1.97;;;25.40;49.70;;;;;;5028621;28;20033;-57
2021/09/03 10:51:13;;;;;;;3.03;2.10;;;25.40;49.60;;;;;;5011781;28;20327;-52
2021/09/03 10:53:43;;;;;;;2.70;2.00;;;25.40;49.50;;;;;;5021236;28;20029;-52
2021/09/03 10:56:16;;;;;;;2.70;2.10;;;25.40;49.50;;;;;;5012842;28;20026;-47
2021/09/03 10:59:05;;;;;;;2.78;1.90;;;25.40;49.50;;;;;;5018414;28;20116;-58
2021/09/03 11:01:32;;;;;;;2.80;2.10;;;25.40;49.50;;;;;;5029411;28;20338;-59
2021/09/03 11:04:07;;;;;;;2.75;1.95;;;25.40;49.50;;;;;;5020420;28;20757;-58
2021/09/03 11:06:35;;;;;;;2.70;2.03;;;25.40;49.50;;;;;;5017339;28;20145;-53
2021/09/03 11:09:19;;;;;;;2.53;1.98;;;25.40;49.50;;;;;;5016810;28;20060;-55
2021/09/03 11:11:51;;;;;;;2.47;1.85;;;25.40;49.50;;;;;;5019674;28;20401;-60
2021/09/03 11:14:22;;;;;;;2.72;2.00;;;25.40;49.60;;;;;;5015344;28;20544;-58
2021/09/03 11:16:51;;;;;;;3.25;2.10;;;25.50;49.60;;;;;;5023439;28;20022;-59
2021/09/03 11:19:28;;;;;;;2.30;1.80;;;25.50;49.70;;;;;;5022640;28;20025;-50
2021/09/03 11:22:01;;;;;;;2.70;2.00;;;25.40;49.70;;;;;;5018123;28;20037;-55
2021/09/03 11:24:34;;;;;;;2.35;1.83;;;25.40;49.60;;;;;;5026019;28;20060;-60
2021/09/03 11:27:02;;;;;;;2.28;1.80;;;25.40;49.70;;;;;;5015916;28;20092;-58
2021/09/03 11:29:35;;;;;;;2.55;1.95;;;25.50;49.80;;;;;;5015814;28;20449;-58
2021/09/03 11:32:06;;;;;;;2.95;1.90;;;25.50;49.80;;;;;;5018756;28;20045;-52
2021/09/03 11:34:52;;;;;;;2.58;2.00;;;25.40;49.80;;;;;;5021070;28;20030;-57
2021/09/03 11:37:20;;;;;;;2.20;1.60;;;25.50;49.80;;;;;;5016387;28;20034;-58
2021/09/03 11:39:46;;;;;;;3.75;1.80;;;25.50;49.90;;;;;;5020175;28;20121;-52
2021/09/03 11:42:23;;;;;;;2.67;2.00;;;25.50;49.90;;;;;;5022535;28;20456;-55
2021/09/03 11:44:58;;;;;;;2.15;1.50;;;25.50;49.90;;;;;;5013991;28;20107;-58
2021/09/03 11:47:25;;;;;;;3.03;1.98;;;25.50;50.00;;;;;;5024106;28;20049;-56
2021/09/03 11:49:51;;;;;;;2.60;1.90;;;25.50;50.00;;;;;;5018434;28;20052;-53
2021/09/03 11:52:23;;;;;;;2.55;1.88;;;25.50;50.00;;;;;;5012154;28;20038;-59
2021/09/03 11:54:49;;;;;;;2.30;1.67;;;25.50;50.20;;;;;;5013483;28;20103;-61
2021/09/03 11:57:15;;;;;;;2.20;1.60;;;25.60;50.20;;;;;;5019413;28;20022;-56
2021/09/03 11:59:52;;;;;;;2.67;1.80;;;25.60;50.40;;;;;;5017327;28;20153;-57
2021/09/03 12:02:19;;;;;;;2.50;1.83;;;25.60;50.10;;;;;;5019848;28;20033;-52
2021/09/03 12:04:45;;;;;;;2.53;1.90;;;25.60;50.10;;;;;;5016794;28;20033;-53
2021/09/03 12:07:18;;;;;;;2.65;2.00;;;25.60;50.00;;;;;;5031565;28;20041;-54
2021/09/03 12:09:44;;;;;;;2.50;1.90;;;25.60;49.90;;;;;;5018176;28;20053;-60
2021/09/03 12:12:10;;;;;;;2.50;2.00;;;25.60;49.80;;;;;;5016490;28;20037;-60
2021/09/03 12:14:36;;;;;;;2.63;1.92;;;25.60;49.70;;;;;;5021899;28;20037;-48
2021/09/03 12:17:02;;;;;;;2.47;1.80;;;25.60;49.70;;;;;;5015271;28;20496;-57
2021/09/03 12:19:29;;;;;;;2.85;1.90;;;25.60;49.70;;;;;;5012151;28;20029;-52
2021/09/03 12:21:54;;;;;;;3.00;2.00;;;25.60;49.70;;;;;;5019376;28;20108;-59
2021/09/03 12:24:22;;;;;;;3.05;2.03;;;25.60;49.70;;;;;;5022993;28;20161;-58
2021/09/03 12:26:56;;;;;;;2.88;2.05;;;25.50;49.70;;;;;;5013143;28;20101;-57
2021/09/03 12:29:29;;;;;;;2.90;2.20;;;25.50;49.70;;;;;;5029913;28;20053;-52
2021/09/03 12:32:00;;;;;;;2.67;1.90;;;25.50;49.80;;;;;;5018199;28;20513;-55
2021/09/03 12:34:31;;;;;;;2.60;1.88;;;25.50;49.80;;;;;;5017354;28;20061;-58
2021/09/03 12:37:03;;;;;;;2.47;1.90;;;25.50;49.80;;;;;;5022728;28;20045;-51
2021/09/03 12:39:31;;;;;;;2.83;1.90;;;25.50;49.80;;;;;;5018362;28;20026;-60
2021/09/03 12:41:57;;;;;;;3.00;2.15;;;25.50;49.80;;;;;;5021606;28;20468;-58
2021/09/03 12:44:27;;;;;;;2.95;2.13;;;25.50;49.80;;;;;;5021380;28;20052;-55
2021/09/03 12:47:00;;;;;;;2.92;2.05;;;25.50;49.80;;;;;;5016144;28;20033;-58